Norse, Texas
Current Conditions -  °F | °C
As of 10:51 AM on Tuesday 27 Jan 2015 (Local Time) from KACT Reporting Station
Clear Clear  
Wind Chill: 65°   Ceiling: Unl
Heat Index: 65°   Visibility: 10mi
Dew Point: 41°   Wind: 7mph
Humidity: 42%   Direction: 350°N
Pressure: 30.21"   Gusts: NA
Location:  31.7854°N, 97.5786°W
Report Text: KACT 271651Z 35006KT 10SM CLR 18/05 A3021 RMK AO2 SLP226 T01830050
Loading
Personal Weather Stations






























Interactive Weather Map New forecast layout! Learn more

10-Day Weather Forecast

Advertisements
Track Severe Weather on mobile